Time;durP1;ratioP1;P1;durP2;ratioP2;P2;SDS_P1;SDS_P2;PMS_P1;PMS_P2;Temp;Humidity;BMP_temperature;BMP_pressure;BME280_temperature;BME280_humidity;BME280_pressure;Samples;Min_cycle;Max_cycle;Signal;HPM_P1;HPM_P2
2023/10/16 16:58:46;;;;;;;4.13;2.10;;;;;;;;;;5157328;27;20474;-79
2023/10/16 17:01:12;;;;;;;2.80;1.70;;;;;;;;;;5154768;27;20273;-76
2023/10/16 17:03:39;;;;;;;2.35;1.42;;;;;;;;;;5145644;27;20035;-77
2023/10/16 17:06:07;;;;;;;2.35;1.35;;;;;;;;;;5155909;27;20011;-74
2023/10/16 17:08:34;;;;;;;2.53;1.67;;;;;;;;;;5156744;27;20102;-75
2023/10/16 17:11:00;;;;;;;4.40;1.92;;;;;;;;;;5157607;27;20068;-76
2023/10/16 17:13:26;;;;;;;6.60;3.17;;;;;;;;;;5138380;27;20023;-73
2023/10/16 17:15:54;;;;;;;17.83;7.03;;;;;;;;;;5138093;28;20383;-74
2023/10/16 17:18:20;;;;;;;5.70;3.22;;;;;;;;;;5148171;27;20019;-74
2023/10/16 17:20:46;;;;;;;6.00;2.70;;;;;;;;;;5143406;27;20303;-74
2023/10/16 17:23:13;;;;;;;7.53;4.00;;;;;;;;;;5141716;27;20171;-74
2023/10/16 17:25:40;;;;;;;10.50;4.05;;;;;;;;;;5138048;28;20072;-74
2023/10/16 17:28:07;;;;;;;6.30;3.25;;;;;;;;;;5138278;27;20249;-75
2023/10/16 17:30:33;;;;;;;7.18;3.30;;;;;;;;;;5137959;27;20121;-73
2023/10/16 17:33:00;;;;;;;5.18;3.22;;;;;;;;;;5149844;27;20030;-73
2023/10/16 17:35:33;;;;;;;8.60;3.22;;;;;;;;;;5145808;27;20015;-74
2023/10/16 17:38:00;;;;;;;4.90;2.55;;;;;;;;;;5159111;27;20057;-73
2023/10/16 17:40:26;;;;;;;6.63;2.63;;;;;;;;;;5146654;27;20027;-74
2023/10/16 17:42:55;;;;;;;2.80;1.70;;;;;;;;;;5149619;27;20123;-73
2023/10/16 17:45:22;;;;;;;7.83;3.73;;;8.00;67.20;;;;;;5139349;27;20011;-73
2023/10/16 17:47:52;;;;;;;19.10;7.03;;;;;;;;;;5156668;27;20114;-74
2023/10/16 17:50:21;;;;;;;25.80;8.30;;;;;;;;;;5158165;27;20059;-73
2023/10/16 17:52:51;;;;;;;11.80;5.20;;;;;;;;;;5156853;27;20030;-73
2023/10/16 17:55:18;;;;;;;6.60;3.45;;;;;;;;;;5137306;28;20023;-73
2023/10/16 17:57:49;;;;;;;7.13;3.00;;;7.30;71.20;;;;;;5149684;27;20046;-73
2023/10/16 18:00:16;;;;;;;11.10;4.18;;;;;;;;;;5157979;27;20026;-73
2023/10/16 18:02:47;;;;;;;10.70;4.57;;;;;;;;;;5157545;27;20022;-73
2023/10/16 18:05:13;;;;;;;13.30;4.45;;;;;;;;;;5157886;27;20021;-73
2023/10/16 18:07:40;;;;;;;6.53;3.53;;;;;;;;;;5153378;27;20273;-73
2023/10/16 18:10:07;;;;;;;6.88;2.72;;;;;;;;;;5129665;27;20019;-73
2023/10/16 18:12:34;;;;;;;5.07;2.75;;;;;;;;;;5135961;27;20051;-73
2023/10/16 18:15:14;;;;;;;8.32;2.85;;;;;;;;;;5143139;27;20090;-73
2023/10/16 18:17:42;;;;;;;7.22;1.88;;;7.20;75.50;;;;;;5136773;27;20027;-73
2023/10/16 18:20:09;;;;;;;4.85;1.92;;;;;;;;;;5133498;27;20072;-73
2023/10/16 18:22:42;;;;;;;6.00;2.42;;;;;;;;;;5135822;27;20023;-73
2023/10/16 18:25:08;;;;;;;5.93;2.80;;;;;;;;;;5142829;27;20031;-73
2023/10/16 18:27:36;;;;;;;12.10;6.15;;;;;;;;;;5143570;27;20042;-73
2023/10/16 18:30:03;;;;;;;7.03;3.90;;;;;;;;;;5138802;27;20229;-73
2023/10/16 18:32:30;;;;;;;7.65;3.00;;;;;;;;;;5121908;28;20034;-73
2023/10/16 18:34:57;;;;;;;12.52;6.28;;;;;;;;;;5122070;27;20015;-74
2023/10/16 18:37:25;;;;;;;7.93;4.28;;;;;;;;;;5130254;27;20017;-74
2023/10/16 18:39:52;;;;;;;12.40;4.88;;;;;;;;;;5131646;27;20582;-74
2023/10/16 18:42:20;;;;;;;18.47;7.63;;;;;;;;;;5132185;27;20086;-74
2023/10/16 18:44:49;;;;;;;22.33;10.73;;;;;;;;;;5123002;28;20068;-74
2023/10/16 18:47:17;;;;;;;;;;;;;;;;;;5123350;28;20228;-75
2023/10/16 18:49:44;;;;;;;15.68;6.47;;;;;;;;;;5121420;28;19899;-75
2023/10/16 18:52:10;;;;;;;10.85;5.70;;;;;;;;;;5122832;28;20015;-75
2023/10/16 18:54:37;;;;;;;8.45;3.97;;;;;;;;;;5121490;28;20028;-75
2023/10/16 18:57:04;;;;;;;4.13;2.38;;;;;;;;;;5122568;28;20027;-75
2023/10/16 18:59:30;;;;;;;6.07;2.70;;;;;;;;;;5122678;28;20028;-76
2023/10/16 19:01:58;;;;;;;9.65;3.47;;;;;;;;;;5122573;28;20033;-75
2023/10/16 19:04:25;;;;;;;386.55;132.25;;;;;;;;;;5138695;27;20027;-75
2023/10/16 19:06:52;;;;;;;456.67;175.50;;;;;;;;;;5142687;27;20041;-74
2023/10/16 19:09:18;;;;;;;414.55;158.25;;;6.00;78.90;;;;;;5142620;27;20022;-75
2023/10/16 19:11:46;;;;;;;301.23;105.40;;;;;;;;;;5141749;27;20045;-75
2023/10/16 19:14:12;;;;;;;120.65;44.45;;;;;;;;;;5142424;27;20023;-75
2023/10/16 19:16:40;;;;;;;132.98;46.00;;;;;;;;;;5142934;27;20045;-74
2023/10/16 19:19:08;;;;;;;57.08;20.00;;;;;;;;;;5142952;27;20015;-75
2023/10/16 19:21:34;;;;;;;9.10;4.50;;;5.90;82.10;;;;;;5141670;27;20011;-75
2023/10/16 19:24:06;;;;;;;50.22;17.90;;;;;;;;;;5137585;27;20034;-76
2023/10/16 19:26:34;;;;;;;48.30;19.58;;;5.90;82.00;;;;;;5139578;27;20027;-75
2023/10/16 19:29:01;;;;;;;56.40;21.02;;;;;;;;;;5140519;27;20018;-75
2023/10/16 19:31:29;;;;;;;44.33;17.10;;;5.70;83.30;;;;;;5127302;27;20022;-74
2023/10/16 19:33:58;;;;;;;29.90;10.50;;;;;;;;;;5135558;27;20061;-75
2023/10/16 19:36:25;;;;;;;8.60;3.80;;;;;;;;;;5141067;27;20094;-75
2023/10/16 19:38:51;;;;;;;6.90;3.80;;;;;;;;;;5139930;27;20338;-74
2023/10/16 19:41:21;;;;;;;10.13;3.58;;;;;;;;;;5140084;27;20091;-75
2023/10/16 19:43:52;;;;;;;7.43;2.22;;;;;;;;;;5134192;27;20034;-75
2023/10/16 19:46:19;;;;;;;7.88;2.35;;;;;;;;;;5140876;27;20038;-76
2023/10/16 19:48:49;;;;;;;4.95;2.63;;;;;;;;;;5139429;27;20039;-76
2023/10/16 19:51:17;;;;;;;8.05;2.42;;;;;;;;;;5142336;27;20074;-76
2023/10/16 19:53:47;;;;;;;5.18;1.65;;;;;;;;;;5142184;27;20033;-77
2023/10/16 19:56:19;;;;;;;5.63;2.42;;;;;;;;;;5142267;27;20041;-76
2023/10/16 19:58:46;;;;;;;3.95;2.22;;;;;;;;;;5142146;27;20031;-76
2023/10/16 20:01:13;;;;;;;8.38;3.22;;;;;;;;;;5142099;27;20027;-76
2023/10/16 20:03:41;;;;;;;7.65;3.42;;;5.40;82.90;;;;;;5141652;27;20010;-76
2023/10/16 20:06:11;;;;;;;15.13;6.47;;;;;;;;;;5141951;27;20022;-76
2023/10/16 20:08:38;;;;;;;22.38;9.40;;;;;;;;;;5141833;27;20035;-77
2023/10/16 20:11:04;;;;;;;29.83;12.68;;;;;;;;;;5141931;27;20015;-77
2023/10/16 20:13:31;;;;;;;30.83;10.75;;;;;;;;;;5140393;27;20230;-77
2023/10/16 20:15:58;;;;;;;20.52;9.82;;;;;;;;;;5141845;27;20067;-76
2023/10/16 20:18:25;;;;;;;16.08;7.28;;;;;;;;;;5141828;27;20216;-77
2023/10/16 20:21:01;;;;;;;18.90;8.35;;;;;;;;;;5140385;27;20019;-77
2023/10/16 20:23:33;;;;;;;17.65;7.22;;;4.50;86.60;;;;;;5141138;27;20356;-75
2023/10/16 20:26:00;;;;;;;20.60;8.63;;;4.50;88.30;;;;;;5138318;27;20318;-76
2023/10/16 20:28:26;;;;;;;14.80;6.85;;;;;;;;;;5130489;27;20043;-75
2023/10/16 20:30:57;;;;;;;9.10;4.70;;;;;;;;;;5138109;27;20019;-75
2023/10/16 20:33:24;;;;;;;12.30;5.60;;;;;;;;;;5131158;27;20031;-76
2023/10/16 20:35:51;;;;;;;14.35;5.82;;;;;;;;;;5136283;27;20018;-76
2023/10/16 20:38:18;;;;;;;21.95;8.93;;;;;;;;;;5135601;27;20042;-72
2023/10/16 20:40:45;;;;;;;21.55;8.32;;;;;;;;;;5130878;27;20109;-79
2023/10/16 20:43:11;;;;;;;14.55;5.28;;;;;;;;;;5140205;27;20303;-76
2023/10/16 20:45:37;;;;;;;13.65;5.70;;;;;;;;;;5140253;27;20046;-76
2023/10/16 20:48:05;;;;;;;11.18;4.88;;;;;;;;;;5129689;28;20038;-74
2023/10/16 20:50:32;;;;;;;6.75;2.63;;;;;;;;;;5141241;27;20012;-75
2023/10/16 20:52:58;;;;;;;4.75;1.92;;;;;;;;;;5141299;27;20031;-79
2023/10/16 20:55:24;;;;;;;7.10;3.95;;;;;;;;;;5131486;27;20422;-76
2023/10/16 20:57:51;;;;;;;9.10;3.70;;;4.60;88.50;;;;;;5131104;28;20047;-76
2023/10/16 21:00:19;;;;;;;8.40;4.20;;;;;;;;;;5134003;27;20020;-76
2023/10/16 21:02:52;;;;;;;17.73;4.75;;;;;;;;;;5120508;28;20371;-76
2023/10/16 21:05:25;;;;;;;9.98;4.43;;;;;;;;;;5130861;28;20039;-76
2023/10/16 21:07:53;;;;;;;8.95;3.75;;;;;;;;;;5141051;28;20078;-76
2023/10/16 21:10:19;;;;;;;8.73;4.35;;;;;;;;;;5141134;28;20023;-75
2023/10/16 21:12:46;;;;;;;5.22;2.80;;;;;;;;;;5141321;28;20022;-76
2023/10/16 21:15:12;;;;;;;6.60;3.17;;;;;;;;;;5141113;28;20087;-76
2023/10/16 21:17:38;;;;;;;7.40;2.80;;;;;;;;;;5139781;28;20015;-72
2023/10/16 21:20:07;;;;;;;10.23;3.72;;;;;;;;;;5140993;28;20047;-73
2023/10/16 21:22:33;;;;;;;9.52;4.28;;;;;;;;;;5140902;28;20029;-72
2023/10/16 21:24:59;;;;;;;9.15;4.05;;;;;;;;;;5140825;28;20023;-72
2023/10/16 21:27:25;;;;;;;6.15;3.85;;;;;;;;;;5140754;28;20037;-72
2023/10/16 21:29:51;;;;;;;8.80;4.25;;;;;;;;;;5140999;28;20011;-72
2023/10/16 21:32:21;;;;;;;5.35;2.60;;;;;;;;;;5141098;27;20023;-72
2023/10/16 21:34:48;;;;;;;7.40;2.53;;;4.20;91.20;;;;;;5140705;28;20018;-72
2023/10/16 21:37:15;;;;;;;5.72;2.47;;;;;;;;;;5141102;27;20285;-72
2023/10/16 21:39:41;;;;;;;5.63;2.50;;;;;;;;;;5140878;28;20027;-71
2023/10/16 21:42:10;;;;;;;18.75;7.80;;;;;;;;;;5140799;28;20052;-71
2023/10/16 21:44:38;;;;;;;21.52;7.40;;;;;;;;;;5143115;27;20031;-72
2023/10/16 21:47:06;;;;;;;19.67;6.70;;;;;;;;;;5144740;27;20055;-71
2023/10/16 21:49:34;;;;;;;9.13;4.40;;;;;;;;;;5144492;27;20559;-71
2023/10/16 21:52:00;;;;;;;7.03;2.65;;;;;;;;;;5144586;27;20065;-71
2023/10/16 21:54:26;;;;;;;6.60;2.60;;;;;;;;;;5144361;27;20309;-72
2023/10/16 21:56:52;;;;;;;3.35;1.98;;;;;;;;;;5144321;27;20093;-70
2023/10/16 21:59:18;;;;;;;9.57;3.67;;;;;;;;;;5144298;27;20315;-71
2023/10/16 22:01:44;;;;;;;6.60;3.30;;;;;;;;;;5144355;27;20026;-71
2023/10/16 22:04:10;;;;;;;8.00;3.17;;;;;;;;;;5144705;27;20038;-76
2023/10/16 22:06:37;;;;;;;5.15;2.25;;;;;;;;;;5145378;27;20093;-74
2023/10/16 22:09:09;;;;;;;8.95;3.60;;;;;;;;;;5143077;27;20030;-75
2023/10/16 22:11:36;;;;;;;8.68;3.58;;;;;;;;;;5144362;27;20118;-75
2023/10/16 22:14:02;;;;;;;13.00;3.63;;;;;;;;;;5145057;27;20030;-81
2023/10/16 22:16:28;;;;;;;6.88;3.15;;;;;;;;;;5143602;27;20031;-83
2023/10/16 22:18:54;;;;;;;10.00;3.50;;;;;;;;;;5134337;27;20015;-70
2023/10/16 22:21:20;;;;;;;4.25;2.40;;;;;;;;;;5138709;27;20019;-71
2023/10/16 22:23:47;;;;;;;7.15;3.00;;;;;;;;;;5127240;27;20034;-74
2023/10/16 22:26:16;;;;;;;6.32;3.47;;;;;;;;;;5142666;27;20023;-73
2023/10/16 22:28:42;;;;;;;5.47;2.50;;;;;;;;;;5143710;27;20035;-71
2023/10/16 22:31:09;;;;;;;4.35;2.50;;;;;;;;;;5143952;27;20018;-71
2023/10/16 22:33:35;;;;;;;4.70;2.00;;;;;;;;;;5143679;27;20114;-71
2023/10/16 22:36:01;;;;;;;4.38;1.95;;;;;;;;;;5143625;27;20303;-71
2023/10/16 22:38:28;;;;;;;8.55;3.75;;;;;;;;;;5143527;27;20028;-72
2023/10/16 22:41:00;;;;;;;13.10;4.13;;;;;;;;;;5143566;27;20068;-72
2023/10/16 22:43:27;;;;;;;7.53;3.92;;;;;;;;;;5143780;27;20034;-71
2023/10/16 22:45:53;;;;;;;11.45;3.72;;;;;;;;;;5143517;27;20026;-72
2023/10/16 22:48:19;;;;;;;7.47;3.55;;;;;;;;;;5143742;27;20022;-72
2023/10/16 22:50:45;;;;;;;9.45;3.53;;;3.40;90.60;;;;;;5143543;27;20252;-71
2023/10/16 22:53:14;;;;;;;7.68;3.30;;;;;;;;;;5143499;27;20035;-71
2023/10/16 22:55:40;;;;;;;3.28;2.25;;;;;;;;;;5143392;27;20307;-71
2023/10/16 22:58:07;;;;;;;8.80;3.47;;;;;;;;;;5143165;27;20043;-70
2023/10/16 23:00:33;;;;;;;9.63;3.20;;;;;;;;;;5143333;27;20045;-70
2023/10/16 23:02:59;;;;;;;8.13;2.30;;;;;;;;;;5143207;27;20018;-73
2023/10/16 23:05:25;;;;;;;9.90;3.08;;;;;;;;;;5143162;27;20241;-73
2023/10/16 23:07:51;;;;;;;4.75;1.95;;;;;;;;;;5141743;27;20612;-73
2023/10/16 23:10:18;;;;;;;4.35;2.03;;;;;;;;;;5133970;27;20027;-74
2023/10/16 23:12:45;;;;;;;2.55;1.60;;;;;;;;;;5138456;27;20023;-72
2023/10/16 23:17:43;;;;;;;5.88;2.03;;;;;;;;;;5143394;27;20043;-71
2023/10/16 23:20:24;;;;;;;6.55;2.67;;;3.50;91.10;;;;;;5143252;27;20277;-71
2023/10/16 23:22:50;;;;;;;5.35;2.03;;;;;;;;;;5143089;27;20023;-70
2023/10/16 23:25:20;;;;;;;5.53;2.60;;;;;;;;;;5142874;27;20304;-71
2023/10/16 23:27:46;;;;;;;8.10;3.15;;;;;;;;;;5143238;27;20027;-74
2023/10/16 23:30:21;;;;;;;5.28;2.50;;;3.20;91.50;;;;;;5142922;27;20057;-74
2023/10/16 23:32:52;;;;;;;6.38;2.00;;;3.20;92.00;;;;;;5143024;27;20114;-74
2023/10/16 23:35:23;;;;;;;4.53;2.10;;;;;;;;;;5142858;27;20042;-76
2023/10/16 23:37:49;;;;;;;4.38;2.20;;;;;;;;;;5142741;27;20018;-71
2023/10/16 23:43:26;;;;;;;3.95;1.90;;;3.40;92.70;;;;;;5142710;27;20057;-71
2023/10/16 23:45:52;;;;;;;3.03;1.65;;;;;;;;;;5142733;27;20031;-74
2023/10/16 23:48:18;;;;;;;5.90;1.70;;;;;;;;;;5142612;27;20238;-73
2023/10/16 23:50:50;;;;;;;7.28;2.72;;;;;;;;;;5141151;27;20022;-72
2023/10/16 23:53:33;;;;;;;2.70;1.20;;;;;;;;;;5142214;27;20011;-75
2023/10/16 23:58:50;;;;;;;2.33;1.40;;;3.70;90.90;;;;;;5141744;27;20057;-70
